Logan, UT (84341)

4:58 AM MST on February 10, 2016 (GMT -0700)
Logan | | Change Station
CLOSE
Current Station
Personal Weather Station
Location: North Logan, UT
Elevation: 4541 ft
Nearby Weather Stations

Elev 4541 ft 41.78 °N, 111.82 °W | Updated 50 seconds ago

Light Snow
Light Snow Freezing Fog
4.6 °F
Feels Like 5 °F
N
1.0
Wind Variable Wind from WNW
Gusts 2.0 mph

Today
High -- | Low -- °F
--% Chance of Precip.
Yesterday
High -- | Low -- °F
Precip. -- in
Pressure 30.67 in
Visibility 0.2 miles
Clouds
Windchill 5 °F
Dew Point 2 °F
Humidity 89%
Rainfall 0.00 in
Snow Depth Not available.
7:29 AM 5:53 PM
Waxing Crescent, 5% visible
METAR KLGU 101151Z AUTO 33003KT 1/4SM -SN FZFG VV002 M16/M17 A3047 RMK AO2 SNB38 SLP384 P0000 60000 T11561167 11133 21178 55003
Pressure 30.67 in
Visibility 0.2 miles
Clouds
Windchill 5 °F
Dew Point 2 °F
Humidity 89%
Rainfall 0.00 in
Snow Depth Not available.
7:29 AM 5:53 PM
Waxing Crescent, 5% visible
METAR KLGU 101151Z AUTO 33003KT 1/4SM -SN FZFG VV002 M16/M17 A3047 RMK AO2 SNB38 SLP384 P0000 60000 T11561167 11133 21178 55003

10-Day Weather Forecast

Almanac

Astronomy

Feb. 10, 2016 Rise Set
Actual Time
Civil Twilight
Nautical Twilight
Astronomical Twilight
Moon
Length of Visible Light
Length of Day
Tomorrow will be .
, % of the Moon is Illuminated

Today's Extremes

State Highs State Lows

Community

WunderPhotos

Upload Photos

1,891,830 photos uploaded!

WunderBlog® & News

Nearby

Air Quality

  Air Quality AQ Index Pollutant
Not available.

Snow Depth

Station Depth Elevation

Earthquake Activity

City Distance Mag. Time & Date
Minimum magnitude displayed is 2.5.

Coastal Water Temperatures

Place Temperature

Stations

Nearby Weather Stations

Station Location Temp. Windchill Dew Point Humidity Wind Precip. Elev Updated Type
                   

Watches & Warnings

There are currently no watches in effect.